sensor_id;sensor_type;location;lat;lon;timestamp;temperature;humidity
16384;DHT22;8301;51.440;6.610;2023-12-20T00:02:31;6.90;99.90
16384;DHT22;8301;51.440;6.610;2023-12-20T00:04:54;6.80;99.90
16384;DHT22;8301;51.440;6.610;2023-12-20T00:07:21;6.80;99.90
16384;DHT22;8301;51.440;6.610;2023-12-20T00:09:48;6.70;99.90
16384;DHT22;8301;51.440;6.610;2023-12-20T00:12:15;6.70;99.90
16384;DHT22;8301;51.440;6.610;2023-12-20T00:14:42;6.70;99.90
16384;DHT22;8301;51.440;6.610;2023-12-20T00:17:08;6.70;99.90
16384;DHT22;8301;51.440;6.610;2023-12-20T00:19:35;6.60;99.90
16384;DHT22;8301;51.440;6.610;2023-12-20T00:22:03;6.60;99.90
16384;DHT22;8301;51.440;6.610;2023-12-20T00:24:30;6.60;99.90
16384;DHT22;8301;51.440;6.610;2023-12-20T00:26:57;6.60;99.90
16384;DHT22;8301;51.440;6.610;2023-12-20T00:29:23;6.60;99.90
16384;DHT22;8301;51.440;6.610;2023-12-20T00:31:50;6.50;99.90
16384;DHT22;8301;51.440;6.610;2023-12-20T00:34:17;6.50;99.90
16384;DHT22;8301;51.440;6.610;2023-12-20T00:36:44;6.50;99.90
16384;DHT22;8301;51.440;6.610;2023-12-20T00:39:11;6.40;99.90
16384;DHT22;8301;51.440;6.610;2023-12-20T00:41:37;6.50;99.90
16384;DHT22;8301;51.440;6.610;2023-12-20T00:44:05;6.60;99.90
16384;DHT22;8301;51.440;6.610;2023-12-20T00:46:32;6.60;99.90
16384;DHT22;8301;51.440;6.610;2023-12-20T00:48:59;6.70;99.90
16384;DHT22;8301;51.440;6.610;2023-12-20T00:51:25;6.70;99.90
16384;DHT22;8301;51.440;6.610;2023-12-20T00:53:52;6.70;99.90
16384;DHT22;8301;51.440;6.610;2023-12-20T00:56:20;6.70;99.90
16384;DHT22;8301;51.440;6.610;2023-12-20T00:58:47;6.70;99.90
16384;DHT22;8301;51.440;6.610;2023-12-20T01:01:15;6.70;99.90
16384;DHT22;8301;51.440;6.610;2023-12-20T01:03:41;6.70;99.90
16384;DHT22;8301;51.440;6.610;2023-12-20T01:06:08;6.80;99.90
16384;DHT22;8301;51.440;6.610;2023-12-20T01:08:35;6.80;99.90
16384;DHT22;8301;51.440;6.610;2023-12-20T01:11:04;6.70;99.90
16384;DHT22;8301;51.440;6.610;2023-12-20T01:13:31;6.70;99.90
16384;DHT22;8301;51.440;6.610;2023-12-20T01:16:01;6.70;99.90
16384;DHT22;8301;51.440;6.610;2023-12-20T01:18:28;6.70;99.90
16384;DHT22;8301;51.440;6.610;2023-12-20T01:20:56;6.70;99.90
16384;DHT22;8301;51.440;6.610;2023-12-20T01:23:22;6.70;99.90
16384;DHT22;8301;51.440;6.610;2023-12-20T01:25:49;6.60;99.90
16384;DHT22;8301;51.440;6.610;2023-12-20T01:28:16;6.60;99.90
16384;DHT22;8301;51.440;6.610;2023-12-20T01:30:43;6.50;99.90
16384;DHT22;8301;51.440;6.610;2023-12-20T01:33:09;6.40;99.90
16384;DHT22;8301;51.440;6.610;2023-12-20T01:35:36;6.30;99.90
16384;DHT22;8301;51.440;6.610;2023-12-20T01:38:03;6.20;99.90
16384;DHT22;8301;51.440;6.610;2023-12-20T01:40:30;6.20;99.90
16384;DHT22;8301;51.440;6.610;2023-12-20T01:43:02;6.10;99.90
16384;DHT22;8301;51.440;6.610;2023-12-20T01:45:26;6.00;99.90
16384;DHT22;8301;51.440;6.610;2023-12-20T01:47:54;6.00;99.90
16384;DHT22;8301;51.440;6.610;2023-12-20T01:50:21;5.90;99.90
16384;DHT22;8301;51.440;6.610;2023-12-20T01:52:48;5.90;99.90
16384;DHT22;8301;51.440;6.610;2023-12-20T01:55:18;5.80;99.90
16384;DHT22;8301;51.440;6.610;2023-12-20T01:57:45;5.90;99.90
16384;DHT22;8301;51.440;6.610;2023-12-20T02:00:13;5.80;99.90
16384;DHT22;8301;51.440;6.610;2023-12-20T02:02:41;5.90;99.90
16384;DHT22;8301;51.440;6.610;2023-12-20T02:05:08;5.80;99.90
16384;DHT22;8301;51.440;6.610;2023-12-20T02:07:35;5.80;99.90
16384;DHT22;8301;51.440;6.610;2023-12-20T02:10:02;5.80;99.90
16384;DHT22;8301;51.440;6.610;2023-12-20T02:12:30;5.80;99.90
16384;DHT22;8301;51.440;6.610;2023-12-20T02:14:56;5.80;99.90
16384;DHT22;8301;51.440;6.610;2023-12-20T02:17:23;5.80;99.90
16384;DHT22;8301;51.440;6.610;2023-12-20T02:19:50;5.80;99.90
16384;DHT22;8301;51.440;6.610;2023-12-20T02:22:17;5.70;99.90
16384;DHT22;8301;51.440;6.610;2023-12-20T02:24:44;5.60;99.90
16384;DHT22;8301;51.440;6.610;2023-12-20T02:27:12;5.60;99.90
16384;DHT22;8301;51.440;6.610;2023-12-20T02:29:38;5.50;99.90
16384;DHT22;8301;51.440;6.610;2023-12-20T02:32:05;5.50;99.90
16384;DHT22;8301;51.440;6.610;2023-12-20T02:34:32;5.40;99.90
16384;DHT22;8301;51.440;6.610;2023-12-20T02:36:59;5.40;99.90
16384;DHT22;8301;51.440;6.610;2023-12-20T02:39:26;5.30;99.90
16384;DHT22;8301;51.440;6.610;2023-12-20T02:41:53;5.30;99.90
16384;DHT22;8301;51.440;6.610;2023-12-20T02:44:19;5.30;99.90
16384;DHT22;8301;51.440;6.610;2023-12-20T02:46:46;5.30;99.90
16384;DHT22;8301;51.440;6.610;2023-12-20T02:49:13;5.30;99.90
16384;DHT22;8301;51.440;6.610;2023-12-20T02:51:41;5.20;99.90
16384;DHT22;8301;51.440;6.610;2023-12-20T02:54:08;5.20;99.90
16384;DHT22;8301;51.440;6.610;2023-12-20T02:56:34;5.20;99.90
16384;DHT22;8301;51.440;6.610;2023-12-20T02:59:02;5.10;99.90
16384;DHT22;8301;51.440;6.610;2023-12-20T03:01:31;5.20;99.90
16384;DHT22;8301;51.440;6.610;2023-12-20T03:03:58;5.30;99.90
16384;DHT22;8301;51.440;6.610;2023-12-20T03:06:26;5.30;99.90
16384;DHT22;8301;51.440;6.610;2023-12-20T03:08:54;5.40;99.90
16384;DHT22;8301;51.440;6.610;2023-12-20T03:11:20;5.40;99.90
16384;DHT22;8301;51.440;6.610;2023-12-20T03:13:47;5.40;99.90
16384;DHT22;8301;51.440;6.610;2023-12-20T03:16:14;5.40;99.90
16384;DHT22;8301;51.440;6.610;2023-12-20T03:18:42;5.40;99.90
16384;DHT22;8301;51.440;6.610;2023-12-20T03:21:09;5.40;99.90
16384;DHT22;8301;51.440;6.610;2023-12-20T03:23:36;5.40;99.90
16384;DHT22;8301;51.440;6.610;2023-12-20T03:26:02;5.40;99.90
16384;DHT22;8301;51.440;6.610;2023-12-20T03:28:29;5.40;99.90
16384;DHT22;8301;51.440;6.610;2023-12-20T03:30:56;5.40;99.90
16384;DHT22;8301;51.440;6.610;2023-12-20T03:33:23;5.40;99.90
16384;DHT22;8301;51.440;6.610;2023-12-20T03:35:50;5.40;99.90
16384;DHT22;8301;51.440;6.610;2023-12-20T03:38:17;5.40;99.90
16384;DHT22;8301;51.440;6.610;2023-12-20T03:40:44;5.30;99.90
16384;DHT22;8301;51.440;6.610;2023-12-20T03:43:10;5.30;99.90
16384;DHT22;8301;51.440;6.610;2023-12-20T03:45:37;5.40;99.90
16384;DHT22;8301;51.440;6.610;2023-12-20T03:48:04;5.30;99.90
16384;DHT22;8301;51.440;6.610;2023-12-20T03:50:31;5.20;99.90
16384;DHT22;8301;51.440;6.610;2023-12-20T03:52:59;5.10;99.90
16384;DHT22;8301;51.440;6.610;2023-12-20T03:55:28;5.10;99.90
16384;DHT22;8301;51.440;6.610;2023-12-20T03:57:55;5.20;99.90
16384;DHT22;8301;51.440;6.610;2023-12-20T04:00:21;5.20;99.90
16384;DHT22;8301;51.440;6.610;2023-12-20T04:02:50;5.10;99.90
16384;DHT22;8301;51.440;6.610;2023-12-20T04:05:17;5.10;99.90
16384;DHT22;8301;51.440;6.610;2023-12-20T04:07:44;5.10;99.90
16384;DHT22;8301;51.440;6.610;2023-12-20T04:10:10;5.10;99.90
16384;DHT22;8301;51.440;6.610;2023-12-20T04:12:37;5.10;99.90
16384;DHT22;8301;51.440;6.610;2023-12-20T04:15:04;5.20;99.90
16384;DHT22;8301;51.440;6.610;2023-12-20T04:17:33;5.20;99.90
16384;DHT22;8301;51.440;6.610;2023-12-20T04:20:00;5.20;99.90
16384;DHT22;8301;51.440;6.610;2023-12-20T04:22:26;5.20;99.90
16384;DHT22;8301;51.440;6.610;2023-12-20T04:24:53;5.20;99.90
16384;DHT22;8301;51.440;6.610;2023-12-20T04:27:20;5.30;99.90
16384;DHT22;8301;51.440;6.610;2023-12-20T04:29:47;5.30;99.90
16384;DHT22;8301;51.440;6.610;2023-12-20T04:32:15;5.30;99.90
16384;DHT22;8301;51.440;6.610;2023-12-20T04:34:42;5.20;99.90
16384;DHT22;8301;51.440;6.610;2023-12-20T04:37:09;5.20;99.90
16384;DHT22;8301;51.440;6.610;2023-12-20T04:39:36;5.20;99.90
16384;DHT22;8301;51.440;6.610;2023-12-20T04:42:03;5.20;99.90
16384;DHT22;8301;51.440;6.610;2023-12-20T04:44:30;5.20;99.90
16384;DHT22;8301;51.440;6.610;2023-12-20T04:46:57;5.20;99.90
16384;DHT22;8301;51.440;6.610;2023-12-20T04:49:23;5.10;99.90
16384;DHT22;8301;51.440;6.610;2023-12-20T04:51:50;5.00;99.90
16384;DHT22;8301;51.440;6.610;2023-12-20T04:54:17;5.00;99.90
16384;DHT22;8301;51.440;6.610;2023-12-20T04:56:44;5.00;99.90
16384;DHT22;8301;51.440;6.610;2023-12-20T04:59:10;5.00;99.90
16384;DHT22;8301;51.440;6.610;2023-12-20T05:01:37;4.90;99.90
16384;DHT22;8301;51.440;6.610;2023-12-20T05:04:04;4.90;99.90
16384;DHT22;8301;51.440;6.610;2023-12-20T05:06:31;5.00;99.90
16384;DHT22;8301;51.440;6.610;2023-12-20T05:08:58;4.80;99.90
16384;DHT22;8301;51.440;6.610;2023-12-20T05:11:24;4.90;99.90
16384;DHT22;8301;51.440;6.610;2023-12-20T05:13:51;4.90;99.90
16384;DHT22;8301;51.440;6.610;2023-12-20T05:16:18;5.00;99.90
16384;DHT22;8301;51.440;6.610;2023-12-20T05:18:45;5.00;99.90
16384;DHT22;8301;51.440;6.610;2023-12-20T05:21:12;5.00;99.90
16384;DHT22;8301;51.440;6.610;2023-12-20T05:23:39;5.00;99.90
16384;DHT22;8301;51.440;6.610;2023-12-20T05:26:06;5.00;99.90
16384;DHT22;8301;51.440;6.610;2023-12-20T05:28:32;5.00;99.90
16384;DHT22;8301;51.440;6.610;2023-12-20T05:30:59;5.10;99.90
16384;DHT22;8301;51.440;6.610;2023-12-20T05:33:26;5.20;99.90
16384;DHT22;8301;51.440;6.610;2023-12-20T05:35:53;5.20;99.90
16384;DHT22;8301;51.440;6.610;2023-12-20T05:38:20;5.20;99.90
16384;DHT22;8301;51.440;6.610;2023-12-20T05:40:46;5.20;99.90
16384;DHT22;8301;51.440;6.610;2023-12-20T05:43:13;5.20;99.90
16384;DHT22;8301;51.440;6.610;2023-12-20T05:45:40;5.20;99.90
16384;DHT22;8301;51.440;6.610;2023-12-20T05:48:08;5.20;99.90
16384;DHT22;8301;51.440;6.610;2023-12-20T05:50:35;5.20;99.90
16384;DHT22;8301;51.440;6.610;2023-12-20T05:53:02;5.30;99.90
16384;DHT22;8301;51.440;6.610;2023-12-20T05:55:29;5.30;99.90
16384;DHT22;8301;51.440;6.610;2023-12-20T05:57:56;5.30;99.90
16384;DHT22;8301;51.440;6.610;2023-12-20T06:00:23;5.30;99.90
16384;DHT22;8301;51.440;6.610;2023-12-20T06:02:51;5.30;99.90
16384;DHT22;8301;51.440;6.610;2023-12-20T06:05:17;5.40;99.90
16384;DHT22;8301;51.440;6.610;2023-12-20T06:07:45;5.40;99.90
16384;DHT22;8301;51.440;6.610;2023-12-20T06:10:13;5.40;99.90
16384;DHT22;8301;51.440;6.610;2023-12-20T06:12:41;5.50;99.90
16384;DHT22;8301;51.440;6.610;2023-12-20T06:15:07;5.50;99.90
16384;DHT22;8301;51.440;6.610;2023-12-20T06:17:34;5.50;99.90
16384;DHT22;8301;51.440;6.610;2023-12-20T06:20:01;5.50;99.90
16384;DHT22;8301;51.440;6.610;2023-12-20T06:22:28;5.60;99.90
16384;DHT22;8301;51.440;6.610;2023-12-20T06:24:55;5.60;99.90
16384;DHT22;8301;51.440;6.610;2023-12-20T06:27:22;5.70;99.90
16384;DHT22;8301;51.440;6.610;2023-12-20T06:29:49;5.70;99.90
16384;DHT22;8301;51.440;6.610;2023-12-20T06:32:16;5.70;99.90
16384;DHT22;8301;51.440;6.610;2023-12-20T06:34:43;5.70;99.90
16384;DHT22;8301;51.440;6.610;2023-12-20T06:37:10;5.70;99.90
16384;DHT22;8301;51.440;6.610;2023-12-20T06:39:37;5.80;99.90
16384;DHT22;8301;51.440;6.610;2023-12-20T06:42:04;5.80;99.90
16384;DHT22;8301;51.440;6.610;2023-12-20T06:44:30;5.80;99.90
16384;DHT22;8301;51.440;6.610;2023-12-20T06:46:57;5.90;99.90
16384;DHT22;8301;51.440;6.610;2023-12-20T06:49:24;5.90;99.90
16384;DHT22;8301;51.440;6.610;2023-12-20T06:51:51;5.90;99.90
16384;DHT22;8301;51.440;6.610;2023-12-20T06:54:19;5.90;99.90
16384;DHT22;8301;51.440;6.610;2023-12-20T06:56:45;5.90;99.90
16384;DHT22;8301;51.440;6.610;2023-12-20T06:59:12;5.90;99.90
16384;DHT22;8301;51.440;6.610;2023-12-20T07:01:39;5.90;99.90
16384;DHT22;8301;51.440;6.610;2023-12-20T07:04:06;6.00;99.90
16384;DHT22;8301;51.440;6.610;2023-12-20T07:06:33;6.00;99.90
16384;DHT22;8301;51.440;6.610;2023-12-20T07:08:59;6.00;99.90
16384;DHT22;8301;51.440;6.610;2023-12-20T07:11:26;6.00;99.90
16384;DHT22;8301;51.440;6.610;2023-12-20T07:13:53;6.00;99.90
16384;DHT22;8301;51.440;6.610;2023-12-20T07:16:20;6.10;99.90
16384;DHT22;8301;51.440;6.610;2023-12-20T07:18:47;6.10;99.90
16384;DHT22;8301;51.440;6.610;2023-12-20T07:21:13;6.10;99.90
16384;DHT22;8301;51.440;6.610;2023-12-20T07:23:41;6.10;99.90
16384;DHT22;8301;51.440;6.610;2023-12-20T07:26:08;6.10;99.90
16384;DHT22;8301;51.440;6.610;2023-12-20T07:28:35;6.10;99.90
16384;DHT22;8301;51.440;6.610;2023-12-20T07:31:02;6.10;99.90
16384;DHT22;8301;51.440;6.610;2023-12-20T07:33:28;6.10;99.90
16384;DHT22;8301;51.440;6.610;2023-12-20T07:35:55;6.10;99.90
16384;DHT22;8301;51.440;6.610;2023-12-20T07:38:23;6.10;99.90
16384;DHT22;8301;51.440;6.610;2023-12-20T07:40:50;6.10;99.90
16384;DHT22;8301;51.440;6.610;2023-12-20T07:43:17;6.10;99.90
16384;DHT22;8301;51.440;6.610;2023-12-20T07:45:44;6.20;99.90
16384;DHT22;8301;51.440;6.610;2023-12-20T07:48:14;6.20;99.90
16384;DHT22;8301;51.440;6.610;2023-12-20T07:50:41;6.20;99.90
16384;DHT22;8301;51.440;6.610;2023-12-20T07:53:08;6.20;99.90
16384;DHT22;8301;51.440;6.610;2023-12-20T07:55:35;6.20;99.90
16384;DHT22;8301;51.440;6.610;2023-12-20T07:58:02;6.20;99.90
16384;DHT22;8301;51.440;6.610;2023-12-20T08:00:31;6.30;99.90
16384;DHT22;8301;51.440;6.610;2023-12-20T08:02:57;6.30;99.90
16384;DHT22;8301;51.440;6.610;2023-12-20T08:05:24;6.30;99.90
16384;DHT22;8301;51.440;6.610;2023-12-20T08:07:51;6.30;99.90
16384;DHT22;8301;51.440;6.610;2023-12-20T08:10:18;6.30;99.90
16384;DHT22;8301;51.440;6.610;2023-12-20T08:12:45;6.30;99.90
16384;DHT22;8301;51.440;6.610;2023-12-20T08:15:12;6.30;99.90
16384;DHT22;8301;51.440;6.610;2023-12-20T08:17:38;6.30;99.90
16384;DHT22;8301;51.440;6.610;2023-12-20T08:20:06;6.30;99.90
16384;DHT22;8301;51.440;6.610;2023-12-20T08:22:33;6.30;99.90
16384;DHT22;8301;51.440;6.610;2023-12-20T08:25:01;6.30;99.90
16384;DHT22;8301;51.440;6.610;2023-12-20T08:27:28;6.40;99.90
16384;DHT22;8301;51.440;6.610;2023-12-20T08:29:57;6.40;99.90
16384;DHT22;8301;51.440;6.610;2023-12-20T08:32:27;6.40;99.90
16384;DHT22;8301;51.440;6.610;2023-12-20T08:34:54;6.40;99.90
16384;DHT22;8301;51.440;6.610;2023-12-20T08:37:21;6.40;99.90
16384;DHT22;8301;51.440;6.610;2023-12-20T08:39:48;6.30;99.90
16384;DHT22;8301;51.440;6.610;2023-12-20T08:42:14;6.30;99.90
16384;DHT22;8301;51.440;6.610;2023-12-20T08:44:41;6.30;99.90
16384;DHT22;8301;51.440;6.610;2023-12-20T08:47:08;6.30;99.90
16384;DHT22;8301;51.440;6.610;2023-12-20T08:49:36;6.30;99.90
16384;DHT22;8301;51.440;6.610;2023-12-20T08:52:05;6.30;99.90
16384;DHT22;8301;51.440;6.610;2023-12-20T08:54:31;6.30;99.90
16384;DHT22;8301;51.440;6.610;2023-12-20T08:56:58;6.20;99.90
16384;DHT22;8301;51.440;6.610;2023-12-20T08:59:25;6.20;99.90
16384;DHT22;8301;51.440;6.610;2023-12-20T09:01:52;6.20;99.90
16384;DHT22;8301;51.440;6.610;2023-12-20T09:04:20;6.10;99.90
16384;DHT22;8301;51.440;6.610;2023-12-20T09:06:48;6.10;99.90
16384;DHT22;8301;51.440;6.610;2023-12-20T09:09:15;6.10;99.90
16384;DHT22;8301;51.440;6.610;2023-12-20T09:11:42;6.10;99.90
16384;DHT22;8301;51.440;6.610;2023-12-20T09:14:08;6.00;99.90
16384;DHT22;8301;51.440;6.610;2023-12-20T09:16:35;6.10;99.90
16384;DHT22;8301;51.440;6.610;2023-12-20T09:19:02;6.00;99.90
16384;DHT22;8301;51.440;6.610;2023-12-20T09:21:29;6.10;99.90
16384;DHT22;8301;51.440;6.610;2023-12-20T09:23:56;6.10;99.90
16384;DHT22;8301;51.440;6.610;2023-12-20T09:26:22;6.10;99.90
16384;DHT22;8301;51.440;6.610;2023-12-20T09:28:49;6.20;99.90
16384;DHT22;8301;51.440;6.610;2023-12-20T09:31:16;6.20;99.90
16384;DHT22;8301;51.440;6.610;2023-12-20T09:33:43;6.10;99.90
16384;DHT22;8301;51.440;6.610;2023-12-20T09:36:10;6.20;99.90
16384;DHT22;8301;51.440;6.610;2023-12-20T09:38:37;6.20;99.90
16384;DHT22;8301;51.440;6.610;2023-12-20T09:41:04;6.20;99.90
16384;DHT22;8301;51.440;6.610;2023-12-20T09:43:32;6.20;99.90
16384;DHT22;8301;51.440;6.610;2023-12-20T09:46:01;6.30;99.90
16384;DHT22;8301;51.440;6.610;2023-12-20T09:48:29;6.30;99.90
16384;DHT22;8301;51.440;6.610;2023-12-20T09:50:57;6.30;99.90
16384;DHT22;8301;51.440;6.610;2023-12-20T09:53:23;6.30;99.90
16384;DHT22;8301;51.440;6.610;2023-12-20T09:55:52;6.40;99.90
16384;DHT22;8301;51.440;6.610;2023-12-20T09:58:19;6.40;99.90
16384;DHT22;8301;51.440;6.610;2023-12-20T10:00:46;6.40;99.90
16384;DHT22;8301;51.440;6.610;2023-12-20T10:03:13;6.40;99.90
16384;DHT22;8301;51.440;6.610;2023-12-20T10:05:40;6.40;99.90
16384;DHT22;8301;51.440;6.610;2023-12-20T10:08:14;6.50;99.90
16384;DHT22;8301;51.440;6.610;2023-12-20T10:10:41;6.50;99.90
16384;DHT22;8301;51.440;6.610;2023-12-20T10:13:09;6.60;99.90
16384;DHT22;8301;51.440;6.610;2023-12-20T10:15:37;6.60;99.90
16384;DHT22;8301;51.440;6.610;2023-12-20T10:18:04;6.70;99.90
16384;DHT22;8301;51.440;6.610;2023-12-20T10:20:31;6.70;99.90
16384;DHT22;8301;51.440;6.610;2023-12-20T10:22:59;6.70;99.90
16384;DHT22;8301;51.440;6.610;2023-12-20T10:25:26;6.70;99.90
16384;DHT22;8301;51.440;6.610;2023-12-20T10:28:09;6.70;99.90
16384;DHT22;8301;51.440;6.610;2023-12-20T10:30:36;6.70;99.90
16384;DHT22;8301;51.440;6.610;2023-12-20T10:33:03;6.70;99.90
16384;DHT22;8301;51.440;6.610;2023-12-20T10:35:31;6.70;99.90
16384;DHT22;8301;51.440;6.610;2023-12-20T10:37:58;6.80;99.90
16384;DHT22;8301;51.440;6.610;2023-12-20T10:40:26;6.80;99.90
16384;DHT22;8301;51.440;6.610;2023-12-20T10:42:55;6.80;99.90
16384;DHT22;8301;51.440;6.610;2023-12-20T10:45:22;6.80;99.90
16384;DHT22;8301;51.440;6.610;2023-12-20T10:47:49;6.80;99.90
16384;DHT22;8301;51.440;6.610;2023-12-20T10:50:18;6.80;99.90
16384;DHT22;8301;51.440;6.610;2023-12-20T10:52:46;6.80;99.90
16384;DHT22;8301;51.440;6.610;2023-12-20T10:55:14;6.90;99.90
16384;DHT22;8301;51.440;6.610;2023-12-20T10:57:41;6.90;99.90
16384;DHT22;8301;51.440;6.610;2023-12-20T11:00:09;6.90;99.90
16384;DHT22;8301;51.440;6.610;2023-12-20T11:02:39;6.90;99.90
16384;DHT22;8301;51.440;6.610;2023-12-20T11:05:06;6.80;99.90
16384;DHT22;8301;51.440;6.610;2023-12-20T11:15:19;6.80;99.90
16384;DHT22;8301;51.440;6.610;2023-12-20T11:17:46;6.80;99.90
16384;DHT22;8301;51.440;6.610;2023-12-20T11:20:13;6.90;99.90
16384;DHT22;8301;51.440;6.610;2023-12-20T11:22:39;7.00;99.90
16384;DHT22;8301;51.440;6.610;2023-12-20T11:25:08;7.10;99.90
16384;DHT22;8301;51.440;6.610;2023-12-20T11:27:36;7.20;99.90
16384;DHT22;8301;51.440;6.610;2023-12-20T11:30:04;7.20;99.90
16384;DHT22;8301;51.440;6.610;2023-12-20T11:32:35;7.10;99.90
16384;DHT22;8301;51.440;6.610;2023-12-20T11:37:39;7.10;99.90
16384;DHT22;8301;51.440;6.610;2023-12-20T11:40:16;7.10;99.90
16384;DHT22;8301;51.440;6.610;2023-12-20T11:42:44;7.10;99.90
16384;DHT22;8301;51.440;6.610;2023-12-20T11:45:15;7.10;99.90
16384;DHT22;8301;51.440;6.610;2023-12-20T11:47:50;7.10;99.90
16384;DHT22;8301;51.440;6.610;2023-12-20T11:50:15;7.10;99.90
16384;DHT22;8301;51.440;6.610;2023-12-20T11:52:42;7.10;99.90
16384;DHT22;8301;51.440;6.610;2023-12-20T11:55:09;7.00;99.90
16384;DHT22;8301;51.440;6.610;2023-12-20T11:57:35;7.00;99.90
16384;DHT22;8301;51.440;6.610;2023-12-20T12:00:03;7.00;99.90
16384;DHT22;8301;51.440;6.610;2023-12-20T12:02:31;7.10;99.90
16384;DHT22;8301;51.440;6.610;2023-12-20T12:04:59;7.10;99.90
16384;DHT22;8301;51.440;6.610;2023-12-20T12:07:26;7.10;99.90
16384;DHT22;8301;51.440;6.610;2023-12-20T12:09:52;7.10;99.90
16384;DHT22;8301;51.440;6.610;2023-12-20T12:12:19;7.10;99.90
16384;DHT22;8301;51.440;6.610;2023-12-20T12:14:48;7.10;99.90
16384;DHT22;8301;51.440;6.610;2023-12-20T12:17:15;7.20;99.90
16384;DHT22;8301;51.440;6.610;2023-12-20T12:19:42;7.10;99.90
16384;DHT22;8301;51.440;6.610;2023-12-20T12:22:11;7.20;99.90
16384;DHT22;8301;51.440;6.610;2023-12-20T12:24:42;7.20;99.90
16384;DHT22;8301;51.440;6.610;2023-12-20T12:27:10;7.20;99.90
16384;DHT22;8301;51.440;6.610;2023-12-20T12:29:38;7.20;99.90
16384;DHT22;8301;51.440;6.610;2023-12-20T12:32:05;7.20;99.90
16384;DHT22;8301;51.440;6.610;2023-12-20T12:34:35;7.20;99.90
16384;DHT22;8301;51.440;6.610;2023-12-20T12:37:06;7.20;99.90
16384;DHT22;8301;51.440;6.610;2023-12-20T12:39:33;7.20;99.90
16384;DHT22;8301;51.440;6.610;2023-12-20T12:42:00;7.20;99.90
16384;DHT22;8301;51.440;6.610;2023-12-20T12:44:27;7.20;99.90
16384;DHT22;8301;51.440;6.610;2023-12-20T12:46:54;7.10;99.90
16384;DHT22;8301;51.440;6.610;2023-12-20T12:49:21;7.10;99.90
16384;DHT22;8301;51.440;6.610;2023-12-20T12:51:47;7.10;99.90
16384;DHT22;8301;51.440;6.610;2023-12-20T12:54:14;7.10;99.90
16384;DHT22;8301;51.440;6.610;2023-12-20T12:56:44;7.10;99.90
16384;DHT22;8301;51.440;6.610;2023-12-20T12:59:13;7.10;99.90
16384;DHT22;8301;51.440;6.610;2023-12-20T13:01:39;7.10;99.90
16384;DHT22;8301;51.440;6.610;2023-12-20T13:04:06;7.10;99.90
16384;DHT22;8301;51.440;6.610;2023-12-20T13:06:35;7.00;99.90
16384;DHT22;8301;51.440;6.610;2023-12-20T13:09:01;7.00;99.90
16384;DHT22;8301;51.440;6.610;2023-12-20T13:11:30;6.90;99.90
16384;DHT22;8301;51.440;6.610;2023-12-20T13:14:00;6.80;99.90
16384;DHT22;8301;51.440;6.610;2023-12-20T13:16:29;6.80;99.90
16384;DHT22;8301;51.440;6.610;2023-12-20T13:18:56;6.80;99.90
16384;DHT22;8301;51.440;6.610;2023-12-20T13:21:23;6.80;99.90
16384;DHT22;8301;51.440;6.610;2023-12-20T13:23:50;6.80;99.90
16384;DHT22;8301;51.440;6.610;2023-12-20T13:26:16;6.80;99.90
16384;DHT22;8301;51.440;6.610;2023-12-20T13:28:43;6.70;99.90
16384;DHT22;8301;51.440;6.610;2023-12-20T13:31:10;6.70;99.90
16384;DHT22;8301;51.440;6.610;2023-12-20T13:33:37;6.70;99.90
16384;DHT22;8301;51.440;6.610;2023-12-20T13:36:05;6.70;99.90
16384;DHT22;8301;51.440;6.610;2023-12-20T13:38:32;6.70;99.90
16384;DHT22;8301;51.440;6.610;2023-12-20T13:40:59;6.60;99.90
16384;DHT22;8301;51.440;6.610;2023-12-20T13:43:25;6.60;99.90
16384;DHT22;8301;51.440;6.610;2023-12-20T13:45:52;6.70;99.90
16384;DHT22;8301;51.440;6.610;2023-12-20T13:48:19;6.70;99.90
16384;DHT22;8301;51.440;6.610;2023-12-20T13:50:46;6.70;99.90
16384;DHT22;8301;51.440;6.610;2023-12-20T13:53:12;6.70;99.90
16384;DHT22;8301;51.440;6.610;2023-12-20T13:55:39;6.70;99.90
16384;DHT22;8301;51.440;6.610;2023-12-20T13:58:06;6.70;99.90
16384;DHT22;8301;51.440;6.610;2023-12-20T14:00:33;6.70;99.90
16384;DHT22;8301;51.440;6.610;2023-12-20T14:03:00;6.70;99.90
16384;DHT22;8301;51.440;6.610;2023-12-20T14:05:27;6.70;99.90
16384;DHT22;8301;51.440;6.610;2023-12-20T14:07:54;6.70;99.90
16384;DHT22;8301;51.440;6.610;2023-12-20T14:10:23;6.80;99.90
16384;DHT22;8301;51.440;6.610;2023-12-20T14:12:52;6.70;99.90
16384;DHT22;8301;51.440;6.610;2023-12-20T14:15:18;6.80;99.90
16384;DHT22;8301;51.440;6.610;2023-12-20T14:17:45;6.70;99.90
16384;DHT22;8301;51.440;6.610;2023-12-20T14:20:12;6.70;99.90
16384;DHT22;8301;51.440;6.610;2023-12-20T14:22:39;6.80;99.90
16384;DHT22;8301;51.440;6.610;2023-12-20T14:25:07;6.80;99.90
16384;DHT22;8301;51.440;6.610;2023-12-20T14:27:34;6.80;99.90
16384;DHT22;8301;51.440;6.610;2023-12-20T14:30:01;6.80;99.90
16384;DHT22;8301;51.440;6.610;2023-12-20T14:32:28;6.80;99.90
16384;DHT22;8301;51.440;6.610;2023-12-20T14:34:55;6.80;99.90
16384;DHT22;8301;51.440;6.610;2023-12-20T14:37:21;6.90;99.90
16384;DHT22;8301;51.440;6.610;2023-12-20T14:39:48;6.90;99.90
16384;DHT22;8301;51.440;6.610;2023-12-20T14:42:15;7.00;99.90
16384;DHT22;8301;51.440;6.610;2023-12-20T14:44:42;6.90;99.90
16384;DHT22;8301;51.440;6.610;2023-12-20T14:47:09;7.00;99.90
16384;DHT22;8301;51.440;6.610;2023-12-20T14:49:36;7.00;99.90
16384;DHT22;8301;51.440;6.610;2023-12-20T14:52:03;7.00;99.90
16384;DHT22;8301;51.440;6.610;2023-12-20T14:54:31;7.10;99.90
16384;DHT22;8301;51.440;6.610;2023-12-20T14:56:58;7.10;99.90
16384;DHT22;8301;51.440;6.610;2023-12-20T14:59:26;7.10;99.90
16384;DHT22;8301;51.440;6.610;2023-12-20T15:01:52;7.10;99.90
16384;DHT22;8301;51.440;6.610;2023-12-20T15:04:20;7.10;99.90
16384;DHT22;8301;51.440;6.610;2023-12-20T15:06:49;7.20;99.90
16384;DHT22;8301;51.440;6.610;2023-12-20T15:09:16;7.20;99.90
16384;DHT22;8301;51.440;6.610;2023-12-20T15:11:43;7.20;99.90
16384;DHT22;8301;51.440;6.610;2023-12-20T15:14:10;7.20;99.90
16384;DHT22;8301;51.440;6.610;2023-12-20T15:16:37;7.20;99.90
16384;DHT22;8301;51.440;6.610;2023-12-20T15:19:04;7.20;99.90
16384;DHT22;8301;51.440;6.610;2023-12-20T15:21:32;7.20;99.90
16384;DHT22;8301;51.440;6.610;2023-12-20T15:24:00;7.20;99.90
16384;DHT22;8301;51.440;6.610;2023-12-20T15:26:37;7.20;99.90
16384;DHT22;8301;51.440;6.610;2023-12-20T15:29:03;7.20;99.90
16384;DHT22;8301;51.440;6.610;2023-12-20T15:31:31;7.20;99.90
16384;DHT22;8301;51.440;6.610;2023-12-20T15:33:59;7.20;99.90
16384;DHT22;8301;51.440;6.610;2023-12-20T15:36:26;7.30;99.90
16384;DHT22;8301;51.440;6.610;2023-12-20T15:38:53;7.30;99.90
16384;DHT22;8301;51.440;6.610;2023-12-20T15:41:25;7.30;99.90
16384;DHT22;8301;51.440;6.610;2023-12-20T15:43:52;7.30;99.90
16384;DHT22;8301;51.440;6.610;2023-12-20T15:46:19;7.30;99.90
16384;DHT22;8301;51.440;6.610;2023-12-20T15:48:47;7.30;99.90
16384;DHT22;8301;51.440;6.610;2023-12-20T15:51:15;7.30;99.90
16384;DHT22;8301;51.440;6.610;2023-12-20T15:53:41;7.30;99.90
16384;DHT22;8301;51.440;6.610;2023-12-20T15:56:08;7.30;99.90
16384;DHT22;8301;51.440;6.610;2023-12-20T15:58:35;7.30;99.90
16384;DHT22;8301;51.440;6.610;2023-12-20T16:01:02;7.20;99.90
16384;DHT22;8301;51.440;6.610;2023-12-20T16:03:29;7.20;99.90
16384;DHT22;8301;51.440;6.610;2023-12-20T16:05:56;7.20;99.90
16384;DHT22;8301;51.440;6.610;2023-12-20T16:08:24;7.20;99.90
16384;DHT22;8301;51.440;6.610;2023-12-20T16:10:51;7.20;99.90
16384;DHT22;8301;51.440;6.610;2023-12-20T16:13:18;7.20;99.90